createdAt,value
2023-04-23T00:01:51.466Z,36.70
2023-04-23T00:04:19.497Z,44.80
2023-04-23T00:06:47.374Z,34.30
2023-04-23T00:09:15.439Z,36.50
2023-04-23T00:11:42.705Z,35.67
2023-04-23T00:14:09.823Z,37.58
2023-04-23T00:16:37.095Z,38.42
2023-04-23T00:19:07.073Z,33.63
2023-04-23T00:21:34.061Z,30.55
2023-04-23T00:24:01.083Z,29.83
2023-04-23T00:26:28.218Z,28.27
2023-04-23T00:28:55.588Z,30.23
2023-04-23T00:31:22.961Z,31.88
2023-04-23T00:33:50.271Z,30.88
2023-04-23T00:36:17.746Z,31.55
2023-04-23T00:38:44.727Z,33.50
2023-04-23T00:41:11.776Z,35.33
2023-04-23T00:43:38.945Z,31.75
2023-04-23T00:46:06.189Z,34.95
2023-04-23T00:48:33.784Z,34.13
2023-04-23T00:51:03.472Z,32.83
2023-04-23T00:53:30.913Z,35.25
2023-04-23T00:55:58.558Z,34.67
2023-04-23T00:58:25.922Z,34.22
2023-04-23T01:00:53.568Z,32.05
2023-04-23T01:03:22.279Z,34.40
2023-04-23T01:05:50.375Z,41.97
2023-04-23T01:08:18.297Z,32.63
2023-04-23T01:10:47.358Z,46.65
2023-04-23T01:13:14.604Z,31.50
2023-04-23T01:15:42.598Z,31.73
2023-04-23T01:18:09.654Z,32.85
2023-04-23T01:20:37.627Z,31.60
2023-04-23T01:23:05.061Z,31.15
2023-04-23T01:25:32.030Z,35.10
2023-04-23T01:27:59.714Z,28.88
2023-04-23T01:30:27.625Z,30.58
2023-04-23T01:32:56.342Z,34.53
2023-04-23T01:35:24.138Z,37.80
2023-04-23T01:37:55.156Z,33.13
2023-04-23T01:40:23.184Z,32.70
2023-04-23T01:42:50.348Z,32.50
2023-04-23T01:45:20.121Z,35.45
2023-04-23T01:47:48.073Z,34.20
2023-04-23T01:50:15.437Z,34.03
2023-04-23T01:52:44.794Z,34.55
2023-04-23T01:55:11.895Z,36.15
2023-04-23T01:57:38.998Z,34.38
2023-04-23T02:00:11.420Z,34.40
2023-04-23T02:03:04.736Z,33.47
2023-04-23T02:05:34.500Z,34.65
2023-04-23T02:08:02.594Z,33.53
2023-04-23T02:10:31.883Z,33.17
2023-04-23T02:12:59.438Z,31.08
2023-04-23T02:15:26.414Z,31.35
2023-04-23T02:17:54.127Z,29.20
2023-04-23T02:21:00.052Z,29.08
2023-04-23T02:23:27.148Z,34.38
2023-04-23T02:25:54.265Z,30.67
2023-04-23T02:28:21.440Z,31.45
2023-04-23T02:30:48.497Z,30.60
2023-04-23T02:33:15.593Z,33.70
2023-04-23T02:35:42.587Z,35.63
2023-04-23T02:38:25.852Z,34.92
2023-04-23T02:40:53.554Z,35.00
2023-04-23T02:43:24.094Z,31.90
2023-04-23T02:45:50.927Z,33.97
2023-04-23T02:48:18.512Z,35.35
2023-04-23T02:50:46.918Z,34.00
2023-04-23T02:53:14.299Z,33.70
2023-04-23T02:55:42.301Z,32.63
2023-04-23T02:58:09.256Z,32.67
2023-04-23T03:00:38.631Z,33.60
2023-04-23T03:03:06.470Z,31.83
2023-04-23T03:05:33.519Z,31.98
2023-04-23T03:08:00.914Z,36.58
2023-04-23T03:10:28.125Z,34.45
2023-04-23T03:12:54.967Z,31.33
2023-04-23T03:15:22.863Z,37.10
2023-04-23T03:17:51.392Z,33.55
2023-04-23T03:20:19.228Z,34.13
2023-04-23T03:22:46.323Z,34.45
2023-04-23T03:25:13.750Z,32.03
2023-04-23T03:27:40.833Z,32.13
2023-04-23T03:30:08.970Z,32.00
2023-04-23T03:32:36.608Z,34.08
2023-04-23T03:35:03.995Z,31.95
2023-04-23T03:37:30.951Z,34.53
2023-04-23T03:39:57.915Z,29.27
2023-04-23T03:42:25.379Z,37.05
2023-04-23T03:44:53.642Z,32.55
2023-04-23T03:47:21.087Z,32.75
2023-04-23T03:49:48.846Z,31.92
2023-04-23T03:52:16.427Z,35.47
2023-04-23T03:54:43.819Z,30.80
2023-04-23T03:57:14.364Z,35.30
2023-04-23T03:59:57.242Z,34.50
2023-04-23T04:02:25.236Z,32.47
2023-04-23T04:04:55.215Z,36.40
2023-04-23T04:07:24.447Z,34.50
2023-04-23T04:09:51.277Z,35.25
2023-04-23T04:12:18.319Z,33.90
2023-04-23T04:14:46.012Z,34.78
2023-04-23T04:17:16.096Z,32.92
2023-04-23T04:19:43.471Z,37.20
2023-04-23T04:22:10.540Z,32.53
2023-04-23T04:24:37.964Z,34.53
2023-04-23T04:27:05.984Z,41.63
2023-04-23T04:29:33.558Z,37.22
2023-04-23T04:32:01.530Z,37.83
2023-04-23T04:34:28.854Z,38.75
2023-04-23T04:36:55.864Z,36.83
2023-04-23T04:39:23.155Z,100.90
2023-04-23T04:41:50.011Z,34.67
2023-04-23T04:44:25.430Z,34.10
2023-04-23T04:46:58.882Z,44.13
2023-04-23T04:49:26.014Z,35.08
2023-04-23T04:51:54.307Z,34.47
2023-04-23T04:54:21.994Z,32.88
2023-04-23T04:56:49.047Z,32.28
2023-04-23T04:59:16.646Z,32.45
2023-04-23T05:01:44.352Z,30.27
2023-04-23T05:04:14.978Z,33.38
2023-04-23T05:06:42.083Z,30.52
2023-04-23T05:09:10.798Z,30.15
2023-04-23T05:11:38.479Z,35.90
2023-04-23T05:14:05.518Z,29.60
2023-04-23T05:16:32.772Z,31.38
2023-04-23T05:19:00.183Z,33.47
2023-04-23T05:21:27.761Z,30.45
2023-04-23T05:23:55.532Z,29.05
2023-04-23T05:26:22.596Z,32.40
2023-04-23T05:28:49.717Z,29.73
2023-04-23T05:31:16.787Z,29.73
2023-04-23T05:33:49.892Z,29.52
2023-04-23T05:36:18.946Z,29.20
2023-04-23T05:38:47.627Z,27.55
2023-04-23T05:47:41.711Z,25.80
2023-04-23T05:50:19.500Z,22.40
2023-04-23T05:52:46.781Z,21.92
2023-04-23T05:55:15.891Z,30.80
2023-04-23T05:57:43.256Z,22.48
2023-04-23T06:07:11.936Z,23.35
2023-04-23T06:27:55.325Z,27.95
2023-04-23T07:07:09.389Z,20.55
2023-04-23T07:09:36.250Z,19.70
2023-04-23T07:12:03.581Z,18.83
2023-04-23T07:14:30.385Z,19.42
2023-04-23T07:16:57.233Z,19.83
2023-04-23T07:19:24.067Z,20.17
2023-04-23T07:21:51.093Z,19.30
2023-04-23T07:24:17.817Z,18.10
2023-04-23T07:26:45.293Z,18.40
2023-04-23T07:29:14.236Z,28.00
2023-04-23T07:31:43.879Z,23.48
2023-04-23T07:34:10.853Z,22.35
2023-04-23T07:36:37.852Z,21.42
2023-04-23T07:39:05.461Z,22.42
2023-04-23T07:41:32.661Z,27.90
2023-04-23T07:43:59.595Z,23.90
2023-04-23T07:46:26.627Z,30.17
2023-04-23T07:48:53.612Z,28.55
2023-04-23T07:51:22.574Z,24.73
2023-04-23T07:53:51.344Z,27.73
2023-04-23T07:56:18.474Z,25.83
2023-04-23T07:58:45.872Z,25.75
2023-04-23T08:01:13.660Z,33.40
2023-04-23T08:03:40.826Z,24.35
2023-04-23T08:06:07.827Z,22.40
2023-04-23T08:08:34.587Z,19.15
2023-04-23T08:11:01.598Z,22.98
2023-04-23T08:13:28.277Z,23.90
2023-04-23T08:15:55.088Z,25.70
2023-04-23T08:18:21.852Z,23.05
2023-04-23T08:20:48.811Z,19.25
2023-04-23T08:23:15.658Z,20.15
2023-04-23T08:25:42.416Z,19.58
2023-04-23T08:28:09.177Z,19.08
2023-04-23T08:30:35.848Z,19.83
2023-04-23T08:33:05.898Z,20.20
2023-04-23T08:35:40.612Z,24.55
2023-04-23T08:38:08.152Z,25.08
2023-04-23T08:40:37.714Z,25.00
2023-04-23T08:43:22.657Z,22.75
2023-04-23T08:45:53.238Z,22.92
2023-04-23T08:51:10.870Z,27.42
2023-04-23T08:53:41.786Z,25.73
2023-04-23T08:56:13.816Z,27.40
2023-04-23T08:58:42.935Z,30.15
2023-04-23T09:01:13.441Z,27.67
2023-04-23T09:03:49.825Z,30.55
2023-04-23T09:06:20.064Z,33.28
2023-04-23T09:08:56.087Z,30.95
2023-04-23T09:11:27.291Z,32.67
2023-04-23T09:13:56.749Z,28.65
2023-04-23T09:16:23.930Z,31.88
2023-04-23T09:18:51.756Z,28.08
2023-04-23T09:21:29.130Z,33.58
2023-04-23T09:24:01.693Z,27.33
2023-04-23T09:26:36.115Z,32.40
2023-04-23T09:29:04.373Z,29.67
2023-04-23T09:31:31.248Z,35.20
2023-04-23T09:34:00.799Z,31.02
2023-04-23T09:36:33.830Z,31.38
2023-04-23T09:41:34.197Z,32.20
2023-04-23T09:44:04.857Z,34.88
2023-04-23T09:46:42.117Z,40.67
2023-04-23T09:49:13.129Z,33.83
2023-04-23T09:51:45.832Z,31.25
2023-04-23T09:54:20.472Z,30.60
2023-04-23T09:56:57.234Z,31.20
2023-04-23T09:59:36.089Z,36.67
2023-04-23T10:02:14.831Z,30.98
2023-04-23T10:04:50.922Z,36.80
2023-04-23T10:07:20.379Z,45.22
2023-04-23T10:09:50.564Z,39.70
2023-04-23T10:12:36.749Z,34.75
2023-04-23T10:15:10.242Z,36.22
2023-04-23T10:17:45.106Z,38.00
2023-04-23T10:20:20.061Z,38.83
2023-04-23T10:22:47.252Z,40.17
2023-04-23T10:25:17.972Z,43.60
2023-04-23T10:27:54.431Z,37.92
2023-04-23T10:30:25.329Z,40.08
2023-04-23T10:32:59.043Z,39.83
2023-04-23T10:35:31.126Z,46.28
2023-04-23T10:38:02.513Z,36.13
2023-04-23T10:40:36.439Z,33.40
2023-04-23T10:43:04.968Z,33.40
2023-04-23T10:45:37.021Z,39.50
2023-04-23T10:48:13.085Z,38.97
2023-04-23T10:51:35.387Z,44.63
2023-04-23T10:54:52.158Z,34.97
2023-04-23T10:57:25.449Z,41.72
2023-04-23T11:00:04.698Z,40.80
2023-04-23T11:02:43.085Z,34.03
2023-04-23T11:05:10.834Z,36.95
2023-04-23T11:07:50.880Z,34.10
2023-04-23T11:10:27.989Z,36.90
2023-04-23T11:13:21.306Z,36.90
2023-04-23T11:15:49.302Z,33.90
2023-04-23T11:18:27.464Z,43.38
2023-04-23T11:20:56.980Z,44.47
2023-04-23T11:23:42.495Z,39.38
2023-04-23T11:26:15.772Z,34.78
2023-04-23T11:29:00.629Z,37.13
2023-04-23T11:31:33.960Z,37.25
2023-04-23T11:34:12.415Z,38.38
2023-04-23T11:36:40.160Z,36.85
2023-04-23T11:39:08.528Z,34.15
2023-04-23T11:41:41.960Z,38.60
2023-04-23T11:44:23.666Z,27.02
2023-04-23T11:46:50.523Z,23.70
2023-04-23T11:49:17.663Z,27.77
2023-04-23T11:51:45.254Z,23.67
2023-04-23T11:54:13.896Z,27.45
2023-04-23T11:56:41.724Z,27.98
2023-04-23T11:59:08.812Z,25.27
2023-04-23T12:01:45.858Z,29.92
2023-04-23T12:04:19.070Z,26.52
2023-04-23T12:06:48.043Z,27.77
2023-04-23T12:09:28.158Z,31.58
2023-04-23T12:17:32.863Z,27.45
2023-04-23T12:20:03.668Z,27.00
2023-04-23T12:22:30.616Z,28.55
2023-04-23T12:24:58.637Z,31.27
2023-04-23T12:27:46.819Z,33.78
2023-04-23T12:31:01.187Z,40.83
2023-04-23T12:34:05.989Z,36.85
2023-04-23T12:36:47.820Z,38.72
2023-04-23T12:39:36.125Z,39.78
2023-04-23T12:42:23.038Z,36.22
2023-04-23T12:44:56.609Z,35.20
2023-04-23T12:47:24.991Z,29.75
2023-04-23T12:49:57.117Z,31.33
2023-04-23T12:52:47.565Z,29.40
2023-04-23T12:55:16.021Z,37.10
2023-04-23T12:57:43.701Z,40.78
2023-04-23T13:00:11.317Z,25.33
2023-04-23T13:02:38.787Z,25.23
2023-04-23T13:05:05.923Z,31.08
2023-04-23T13:07:32.649Z,21.67
2023-04-23T13:09:59.716Z,39.95
2023-04-23T13:12:26.719Z,28.05
2023-04-23T13:14:53.763Z,34.38
2023-04-23T13:17:20.573Z,30.13
2023-04-23T13:19:47.329Z,33.05
2023-04-23T13:22:14.505Z,26.30
2023-04-23T13:24:41.315Z,31.70
2023-04-23T13:27:08.115Z,28.48
2023-04-23T13:29:57.691Z,21.98
2023-04-23T13:32:32.327Z,27.08
2023-04-23T13:35:05.223Z,22.05
2023-04-23T13:37:47.586Z,22.85
2023-04-23T13:40:38.016Z,21.50
2023-04-23T13:52:12.469Z,30.08
2023-04-23T13:54:39.958Z,31.15
2023-04-23T13:57:07.306Z,23.98
2023-04-23T13:59:34.241Z,23.30
2023-04-23T14:02:01.021Z,22.75
2023-04-23T14:04:28.022Z,19.38
2023-04-23T14:11:12.337Z,27.27
2023-04-23T14:13:58.571Z,25.30
2023-04-23T14:16:25.550Z,20.88
2023-04-23T14:18:52.468Z,18.88
2023-04-23T14:21:19.333Z,16.85
2023-04-23T14:23:51.964Z,17.55
2023-04-23T14:26:47.179Z,20.35
2023-04-23T14:29:19.991Z,20.42
2023-04-23T14:31:46.975Z,18.25
2023-04-23T14:34:13.711Z,17.73
2023-04-23T14:36:40.450Z,28.67
2023-04-23T14:39:07.227Z,18.75
2023-04-23T14:41:34.613Z,19.20
2023-04-23T14:44:01.528Z,13.82
2023-04-23T14:46:29.449Z,16.83
2023-04-23T14:48:56.584Z,17.45
2023-04-23T14:51:23.758Z,18.38
2023-04-23T14:53:52.170Z,16.33
2023-04-23T14:56:20.562Z,15.32
2023-04-23T14:58:47.547Z,17.77
2023-04-23T15:01:15.222Z,15.57
2023-04-23T15:03:44.455Z,15.75
2023-04-23T15:06:11.464Z,15.52
2023-04-23T15:08:38.182Z,19.55
2023-04-23T15:15:42.985Z,26.58
2023-04-23T15:18:12.083Z,25.48
2023-04-23T15:20:38.898Z,23.13
2023-04-23T15:23:05.948Z,25.75
2023-04-23T15:25:34.247Z,44.67
2023-04-23T15:28:01.711Z,30.50
2023-04-23T15:30:28.735Z,36.53
2023-04-23T15:32:55.928Z,32.90
2023-04-23T15:35:25.898Z,36.05
2023-04-23T15:37:53.535Z,20.20
2023-04-23T15:40:20.279Z,38.72
2023-04-23T15:42:48.085Z,42.60
2023-04-23T15:45:15.216Z,36.03
2023-04-23T15:47:42.264Z,30.98
2023-04-23T15:50:10.150Z,31.52
2023-04-23T15:52:37.750Z,19.38
2023-04-23T15:55:05.639Z,17.55
2023-04-23T15:57:32.904Z,19.33
2023-04-23T15:59:59.990Z,21.38
2023-04-23T16:02:27.307Z,26.35
2023-04-23T16:04:54.458Z,16.80
2023-04-23T16:07:21.325Z,22.65
2023-04-23T16:09:48.478Z,18.50
2023-04-23T16:12:15.292Z,16.98
2023-04-23T16:14:42.744Z,19.33
2023-04-23T16:17:09.812Z,24.88
2023-04-23T16:19:36.678Z,17.02
2023-04-23T16:22:03.534Z,30.45
2023-04-23T16:24:31.034Z,21.88
2023-04-23T16:26:57.820Z,20.42
2023-04-23T16:29:24.973Z,17.92
2023-04-23T16:31:51.916Z,15.10
2023-04-23T16:34:19.190Z,17.05
2023-04-23T16:36:49.185Z,16.42
2023-04-23T16:39:16.222Z,13.88
2023-04-23T16:41:43.230Z,11.98
2023-04-23T16:44:24.363Z,20.48
2023-04-23T16:48:25.248Z,13.88
2023-04-23T16:52:06.389Z,13.57
2023-04-23T16:54:36.444Z,14.13
2023-04-23T16:57:05.944Z,12.95
2023-04-23T16:59:33.100Z,9.50
2023-04-23T17:02:02.864Z,15.05
2023-04-23T17:04:36.124Z,15.48
2023-04-23T17:08:34.667Z,15.27
2023-04-23T17:20:24.708Z,12.20
2023-04-23T17:49:38.903Z,10.50
2023-04-23T17:58:09.592Z,6.97
2023-04-23T18:42:26.143Z,2.90
2023-04-23T18:46:02.634Z,4.68
2023-04-23T19:28:18.430Z,5.50
2023-04-23T20:10:04.864Z,3.85
2023-04-23T20:19:06.468Z,6.97
2023-04-23T20:30:08.496Z,6.38
2023-04-23T20:32:36.855Z,6.20
2023-04-23T20:35:07.168Z,4.72
2023-04-23T20:37:35.106Z,7.10
2023-04-23T20:40:05.977Z,2.63
2023-04-23T20:42:34.112Z,9.00
2023-04-23T20:45:07.014Z,4.43
2023-04-23T20:47:34.564Z,10.15
2023-04-23T20:50:05.325Z,5.90
2023-04-23T20:52:37.518Z,5.35
2023-04-23T20:55:04.611Z,9.02
2023-04-23T20:57:33.039Z,3.72
2023-04-23T21:00:00.603Z,4.50
2023-04-23T21:02:37.938Z,4.20
2023-04-23T21:05:08.558Z,4.47
2023-04-23T21:07:37.064Z,3.75
2023-04-23T21:10:04.679Z,6.75
2023-04-23T21:12:39.945Z,7.63
2023-04-23T21:20:05.160Z,8.27
2023-04-23T21:22:39.020Z,8.30
2023-04-23T21:25:12.789Z,11.73
2023-04-23T21:27:47.265Z,5.63
2023-04-23T21:31:45.582Z,13.13
2023-04-23T21:34:25.144Z,11.55
2023-04-23T21:36:52.282Z,9.88
2023-04-23T21:39:19.730Z,7.88
2023-04-23T21:41:48.625Z,11.85
2023-04-23T21:44:15.962Z,4.70
2023-04-23T21:46:44.954Z,10.32
2023-04-23T21:49:12.219Z,7.68
2023-04-23T21:51:41.186Z,8.95
2023-04-23T21:54:08.920Z,6.07
2023-04-23T21:56:36.214Z,6.38
2023-04-23T21:59:04.696Z,10.40
2023-04-23T22:01:37.810Z,11.35
2023-04-23T22:04:05.239Z,4.30
2023-04-23T22:06:35.364Z,3.55
2023-04-23T22:09:02.779Z,4.88
2023-04-23T22:11:31.376Z,4.07
2023-04-23T22:13:59.133Z,5.10
2023-04-23T22:16:28.823Z,4.65
2023-04-23T22:19:02.404Z,3.58
2023-04-23T22:21:29.682Z,9.73
2023-04-23T22:23:56.952Z,7.35
2023-04-23T22:26:24.099Z,6.03
2023-04-23T22:28:51.280Z,9.00
2023-04-23T22:31:18.928Z,7.97
2023-04-23T22:33:45.849Z,9.18
2023-04-23T22:36:14.086Z,6.15
2023-04-23T22:38:41.471Z,8.90
2023-04-23T22:41:11.729Z,8.68
2023-04-23T22:43:39.227Z,3.92
2023-04-23T22:46:06.660Z,5.65
2023-04-23T22:48:33.678Z,6.05
2023-04-23T22:51:01.399Z,4.65
2023-04-23T22:53:30.155Z,3.75
2023-04-23T22:56:07.081Z,14.13
2023-04-23T22:58:34.195Z,6.60
2023-04-23T23:01:01.621Z,7.72
2023-04-23T23:03:32.425Z,6.38
2023-04-23T23:05:59.826Z,5.25
2023-04-23T23:08:27.062Z,3.05
2023-04-23T23:10:55.081Z,3.47
2023-04-23T23:13:24.498Z,7.18
2023-04-23T23:15:52.152Z,4.45
2023-04-23T23:18:22.346Z,6.68
2023-04-23T23:20:49.293Z,7.70
2023-04-23T23:23:16.537Z,5.18
2023-04-23T23:25:46.657Z,5.85
2023-04-23T23:28:13.913Z,6.72
2023-04-23T23:31:08.242Z,8.20
2023-04-23T23:34:03.102Z,4.80
2023-04-23T23:36:32.229Z,8.15
2023-04-23T23:38:59.351Z,7.00
2023-04-23T23:41:41.964Z,4.13
2023-04-23T23:44:11.760Z,5.75
2023-04-23T23:46:42.183Z,9.00
2023-04-23T23:49:09.866Z,4.28
2023-04-23T23:51:36.952Z,5.70
2023-04-23T23:54:03.921Z,7.32
2023-04-23T23:56:30.864Z,7.75
2023-04-23T23:58:57.931Z,11.00
